Time;durP1;ratioP1;P1;durP2;ratioP2;P2;SDS_P1;SDS_P2;PMS_P1;PMS_P2;Temp;Humidity;BMP_temperature;BMP_pressure;BME280_temperature;BME280_humidity;BME280_pressure;Samples;Min_cycle;Max_cycle;Signal;HPM_P1;HPM_P2
2024/01/13 00:02:29;;;;;;;11.57;5.47;;;;;;;;;;5079570;28;20450;-71
2024/01/13 00:08:54;;;;;;;9.67;4.37;;;;;;;;;;5074778;28;20364;-71
2024/01/13 00:11:21;;;;;;;8.53;4.83;;;;;;;;;;5056765;28;20460;-71
2024/01/13 00:18:06;;;;;;;13.33;5.33;;;;;;;;;;5074570;28;20402;-71
2024/01/13 00:20:35;;;;;;;9.83;4.47;;;;;;;;;;5075023;28;20478;-71
2024/01/13 00:23:02;;;;;;;8.17;4.00;;;;;;;;;;5074665;28;20417;-71
2024/01/13 00:25:28;;;;;;;9.77;4.50;;;;;;;;;;5074379;28;20446;-71
2024/01/13 00:27:55;;;;;;;6.73;4.30;;;;;;;;;;5057793;28;20453;-72
2024/01/13 00:30:22;;;;;;;8.57;4.30;;;;;;;;;;5023816;28;20447;-71
2024/01/13 00:32:49;;;;;;;9.53;3.70;;;;;;;;;;5040306;28;20454;-71
2024/01/13 00:35:15;;;;;;;8.33;3.97;;;;;;;;;;5056573;28;20426;-72
2024/01/13 00:37:44;;;;;;;7.43;3.90;;;;;;;;;;5056928;28;20439;-71
2024/01/13 00:40:13;;;;;;;8.87;3.93;;;;;;;;;;5056964;28;20544;-71
2024/01/13 00:42:41;;;;;;;5.73;3.73;;;;;;;;;;5074064;28;20459;-71
2024/01/13 00:45:07;;;;;;;10.87;3.70;;;;;;;;;;5074635;28;20443;-71
2024/01/13 00:47:34;;;;;;;7.60;3.90;;;;;;;;;;5040692;28;20907;-71
2024/01/13 00:50:01;;;;;;;7.67;4.57;;;;;;;;;;5074245;28;20420;-72
2024/01/13 00:52:28;;;;;;;7.53;4.10;;;;;;;;;;5074093;28;20488;-71
2024/01/13 00:54:54;;;;;;;11.40;5.17;;;;;;;;;;5057441;28;20444;-71
2024/01/13 00:57:21;;;;;;;6.33;3.60;;;;;;;;;;5073889;28;20433;-71
2024/01/13 00:59:47;;;;;;;8.17;3.77;;;;;;;;;;5074864;28;20416;-71
2024/01/13 01:02:14;;;;;;;7.23;3.80;;;;;;;;;;5064141;28;20460;-71
2024/01/13 01:04:58;;;;;;;7.27;3.80;;;;;;;;;;5073852;28;20381;-71
2024/01/13 01:07:25;;;;;;;7.47;3.63;;;;;;;;;;5075163;28;20432;-71
2024/01/13 01:09:51;;;;;;;7.63;4.03;;;;;;;;;;5073937;28;20511;-71
2024/01/13 01:12:18;;;;;;;8.37;3.57;;;;;;;;;;5055691;28;20535;-72
2024/01/13 01:49:42;;;;;;;8.67;3.67;;;;;;;;;;5085769;28;20443;-71
2024/01/13 01:52:09;;;;;;;7.40;3.43;;;;;;;;;;5071738;28;21049;-72
2024/01/13 01:54:36;;;;;;;5.70;3.10;;;;;;;;;;5059609;28;20467;-72
2024/01/13 01:57:02;;;;;;;7.87;3.10;;;;;;;;;;5076944;28;20752;-72
2024/01/13 01:59:29;;;;;;;8.23;3.33;;;;;;;;;;5043054;28;20470;-72
2024/01/13 02:01:56;;;;;;;6.47;3.43;;;;;;;;;;5059434;28;20448;-72
2024/01/13 02:04:41;;;;;;;6.23;3.70;;;;;;;;;;5062611;28;20376;-72
2024/01/13 02:07:07;;;;;;;8.70;4.10;;;;;;;;;;5077318;28;20416;-71
2024/01/13 02:09:34;;;;;;;9.87;4.07;;;;;;;;;;5060343;28;20477;-71
2024/01/13 02:12:00;;;;;;;13.20;4.37;;;;;;;;;;5076876;28;20466;-72
2024/01/13 02:14:27;;;;;;;10.20;4.37;;;;;;;;;;5043063;28;20527;-71
2024/01/13 02:16:54;;;;;;;11.33;4.03;;;;;;;;;;5058447;28;20819;-72
2024/01/13 02:19:20;;;;;;;9.53;3.50;;;;;;;;;;5079390;28;20505;-71
2024/01/13 02:21:47;;;;;;;7.03;4.03;;;;;;;;;;5097978;28;20521;-72
2024/01/13 02:24:14;;;;;;;9.47;3.77;;;;;;;;;;5079623;28;20439;-71
2024/01/13 02:26:44;;;;;;;7.10;3.30;;;;;;;;;;5097314;28;20395;-72
2024/01/13 02:29:11;;;;;;;6.23;3.60;;;;;;;;;;5062358;28;20530;-72
2024/01/13 02:31:37;;;;;;;5.37;3.30;;;;;;;;;;5079482;28;20425;-71
2024/01/13 02:34:04;;;;;;;9.07;3.87;;;;;;;;;;5096430;28;20438;-72
2024/01/13 02:36:31;;;;;;;8.97;3.60;;;;;;;;;;5096779;28;20431;-71
2024/01/13 02:38:57;;;;;;;7.33;3.73;;;;;;;;;;5096753;28;20421;-71
2024/01/13 02:41:24;;;;;;;9.60;3.60;;;;;;;;;;5075513;28;20956;-71
2024/01/13 02:43:51;;;;;;;8.37;3.70;;;;;;;;;;5067208;28;20435;-71
2024/01/13 02:46:18;;;;;;;6.37;3.43;;;;;;;;;;5058942;28;20440;-71
2024/01/13 02:48:45;;;;;;;9.73;4.10;;;;;;;;;;5041844;28;20470;-71
2024/01/13 02:51:14;;;;;;;8.23;4.20;;;;;;;;;;5042714;28;20521;-72
2024/01/13 02:53:42;;;;;;;8.93;4.23;;;;;;;;;;5059077;28;20802;-72
2024/01/13 02:56:09;;;;;;;8.33;4.00;;;;;;;;;;5058508;28;20443;-72
2024/01/13 02:58:35;;;;;;;8.03;3.83;;;;;;;;;;5076137;28;20814;-72
2024/01/13 03:01:11;;;;;;;8.87;4.30;;;;;;;;;;5043624;28;20468;-71
2024/01/13 03:03:38;;;;;;;8.97;4.13;;;;;;;;;;5057923;28;20436;-72
2024/01/13 03:06:06;;;;;;;8.97;3.73;;;;;;;;;;5041749;28;20472;-72
2024/01/13 03:08:34;;;;;;;9.03;3.93;;;;;;;;;;5076725;28;20423;-72
2024/01/13 03:11:08;;;;;;;6.20;3.70;;;;;;;;;;5076392;28;20405;-72
2024/01/13 03:13:36;;;;;;;7.57;4.13;;;;;;;;;;5058227;28;20448;-71
2024/01/13 03:16:03;;;;;;;8.23;4.03;;;;;;;;;;5076036;28;20416;-71
2024/01/13 03:18:29;;;;;;;8.13;3.90;;;;;;;;;;5058561;28;20417;-71
2024/01/13 03:21:06;;;;;;;7.67;3.50;;;;;;;;;;5058959;28;20794;-71
2024/01/13 03:23:33;;;;;;;6.27;3.77;;;;;;;;;;5041537;28;20432;-71
2024/01/13 03:26:00;;;;;;;8.20;3.87;;;;;;;;;;5075658;28;20430;-71
2024/01/13 03:28:27;;;;;;;8.93;2.97;;;;;;;;;;5075554;28;20454;-71
2024/01/13 03:31:06;;;;;;;8.40;3.80;;;;;;;;;;5075783;28;20444;-71
2024/01/13 03:33:33;;;;;;;7.93;4.43;;;;;;;;;;5042169;28;20496;-72
2024/01/13 03:36:01;;;;;;;7.80;3.70;;;;;;;;;;5075405;28;20448;-71
2024/01/13 03:38:27;;;;;;;12.90;3.97;;;;;;;;;;5075642;28;20421;-71
2024/01/13 03:41:08;;;;;;;8.23;3.97;;;;;;;;;;5058276;28;20432;-71
2024/01/13 03:43:34;;;;;;;7.57;4.07;;;;;;;;;;5057794;28;20819;-71
2024/01/13 03:46:02;;;;;;;6.90;4.10;;;;;;;;;;5041299;28;20474;-71
2024/01/13 03:48:29;;;;;;;8.57;4.20;;;;;;;;;;5041039;28;20464;-71
2024/01/13 03:50:56;;;;;;;8.90;4.73;;;;;;;;;;5075639;28;20806;-71
2024/01/13 03:53:22;;;;;;;11.10;4.60;;;;;;;;;;5075203;28;20456;-71
2024/01/13 03:55:49;;;;;;;9.50;3.87;;;;;;;;;;5075329;28;20433;-71
2024/01/13 03:58:16;;;;;;;10.13;4.40;;;;;;;;;;5075186;28;20424;-71
2024/01/13 04:00:44;;;;;;;9.00;3.93;;;;;;;;;;5075430;28;20489;-72
2024/01/13 04:03:10;;;;;;;10.40;5.47;;;;;;;;;;5075763;28;20397;-71
2024/01/13 04:05:37;;;;;;;11.63;5.27;;;;;;;;;;5057189;28;20421;-71
2024/01/13 04:08:04;;;;;;;12.53;4.80;;;;;;;;;;5040823;28;20421;-71
2024/01/13 04:10:31;;;;;;;8.43;4.63;;;;;;;;;;5075278;28;20429;-71
2024/01/13 04:12:58;;;;;;;10.77;4.90;;;;;;;;;;5074613;28;20460;-72
2024/01/13 04:15:25;;;;;;;10.90;5.00;;;;;;;;;;5040556;28;20424;-71
2024/01/13 04:17:53;;;;;;;7.10;4.47;;;;;;;;;;5074754;28;20427;-71
2024/01/13 04:20:21;;;;;;;12.57;5.27;;;;;;;;;;5045654;28;20966;-71
2024/01/13 04:23:05;;;;;;;11.03;4.70;;;;;;;;;;5073487;28;20443;-72
2024/01/13 04:25:32;;;;;;;11.53;4.63;;;;;;;;;;5074464;28;20870;-71
2024/01/13 04:28:16;;;;;;;12.03;5.03;;;;;;;;;;5059902;28;20432;-71
2024/01/13 04:30:42;;;;;;;9.00;4.93;;;;;;;;;;5040972;28;20448;-71
2024/01/13 04:33:09;;;;;;;10.67;5.03;;;;;;;;;;5074504;28;20797;-71
2024/01/13 04:35:36;;;;;;;16.00;5.70;;;;;;;;;;5074280;28;20471;-71
2024/01/13 04:38:03;;;;;;;14.97;5.57;;;;;;;;;;5056635;28;20445;-71
2024/01/13 04:40:33;;;;;;;10.07;5.63;;;;;;;;;;5057556;28;20484;-71
2024/01/13 04:43:00;;;;;;;8.70;5.00;;;;;;;;;;5057477;28;20436;-71
2024/01/13 04:45:26;;;;;;;10.07;5.17;;;;;;;;;;5057483;28;20486;-71
2024/01/13 04:48:11;;;;;;;10.77;5.10;;;;;;;;;;5073734;28;20487;-71
2024/01/13 04:50:38;;;;;;;10.57;5.23;;;;;;;;;;5039897;28;20420;-71
2024/01/13 04:53:22;;;;;;;11.30;5.47;;;;;;;;;;5073767;28;20454;-72
2024/01/13 04:55:49;;;;;;;8.17;5.33;;;;;;;;;;5056506;28;20409;-71
2024/01/13 04:58:15;;;;;;;13.10;6.00;;;;;;;;;;5074006;28;20456;-71
2024/01/13 05:00:42;;;;;;;12.70;6.27;;;;;;;;;;5039842;28;20465;-71
2024/01/13 05:03:09;;;;;;;11.93;6.27;;;;;;;;;;5057207;28;20431;-71
2024/01/13 05:05:36;;;;;;;11.80;6.47;;;;;;;;;;5074220;28;20430;-71
2024/01/13 05:08:03;;;;;;;10.00;5.07;;;;;;;;;;5073718;28;20428;-71
2024/01/13 05:10:30;;;;;;;14.27;7.13;;;;;;;;;;5056452;28;20539;-71
2024/01/13 05:12:56;;;;;;;15.87;7.43;;;;;;;;;;5073746;28;20456;-72
2024/01/13 05:15:23;;;;;;;12.20;6.63;;;;;;;;;;5073921;28;20802;-72
2024/01/13 05:17:50;;;;;;;12.67;6.47;;;;;;;;;;5073588;28;20464;-71
2024/01/13 05:20:18;;;;;;;13.93;7.00;;;;;;;;;;5039529;28;20431;-71
2024/01/13 05:26:44;;;;;;;10.33;6.53;;;;;;;;;;5073270;28;20475;-71
2024/01/13 05:29:11;;;;;;;16.13;7.30;;;;;;;;;;5055504;28;20431;-71
2024/01/13 05:31:38;;;;;;;14.53;7.63;;;;;;;;;;5039661;28;20416;-72
2024/01/13 05:34:05;;;;;;;14.00;6.67;;;;;;;;;;5032120;28;21953;-75
2024/01/13 05:36:32;;;;;;;18.23;7.50;;;;;;;;;;5064196;28;20473;-75
2024/01/13 05:39:16;;;;;;;14.30;7.43;;;;;;;;;;5018006;28;20420;-75
2024/01/13 05:41:43;;;;;;;13.40;6.93;;;;;;;;;;5046147;28;20448;-75
2024/01/13 05:44:11;;;;;;;12.77;6.63;;;;;;;;;;5029422;28;20491;-75
2024/01/13 05:46:38;;;;;;;13.03;7.23;;;;;;;;;;5013363;28;20779;-75
2024/01/13 05:49:04;;;;;;;12.13;6.57;;;;;;;;;;5045970;28;20444;-75
2024/01/13 05:51:33;;;;;;;11.00;6.40;;;;;;;;;;5029649;28;20423;-75
2024/01/13 05:54:00;;;;;;;11.20;6.87;;;;;;;;;;5029241;28;20541;-75
2024/01/13 05:56:27;;;;;;;11.80;6.77;;;;;;;;;;5028751;28;21297;-75
2024/01/13 05:58:54;;;;;;;12.53;7.77;;;;;;;;;;5029282;28;20774;-76
2024/01/13 06:01:24;;;;;;;13.17;7.13;;;;;;;;;;5028651;28;20475;-75
2024/01/13 06:03:51;;;;;;;13.03;7.87;;;;;;;;;;5013319;28;20464;-77
2024/01/13 06:06:18;;;;;;;15.83;7.70;;;;;;;;;;5028527;28;20463;-76
2024/01/13 06:08:45;;;;;;;13.20;6.43;;;;;;;;;;5029160;28;20443;-69
2024/01/13 06:11:11;;;;;;;16.73;7.83;;;;;;;;;;5029648;28;20431;-75
2024/01/13 06:13:38;;;;;;;13.73;7.03;;;;;;;;;;5029580;28;20492;-77
2024/01/13 06:16:05;;;;;;;13.87;6.93;;;;;;;;;;5029335;28;20428;-73
2024/01/13 06:18:32;;;;;;;14.80;7.67;;;;;;;;;;5029364;28;20440;-75
2024/01/13 06:21:00;;;;;;;15.07;7.70;;;;;;;;;;5064120;28;20430;-71
2024/01/13 06:23:26;;;;;;;17.20;8.63;;;;;;;;;;5046297;28;20532;-76
2024/01/13 06:25:53;;;;;;;14.73;8.00;;;;;;;;;;5029861;28;20918;-75
2024/01/13 06:28:20;;;;;;;12.70;7.77;;;;;;;;;;5030454;28;20996;-82
2024/01/13 06:30:49;;;;;;;14.90;8.03;;;;;;;;;;5068842;28;20532;-75
2024/01/13 06:33:17;;;;;;;13.07;6.47;;;;;;;;;;5012643;28;20537;-79
2024/01/13 06:35:45;;;;;;;12.33;6.27;;;;;;;;;;5032920;28;20449;-78
2024/01/13 06:38:12;;;;;;;9.97;6.30;;;;;;;;;;5031136;28;20474;-72
2024/01/13 06:40:38;;;;;;;13.73;7.20;;;;;;;;;;5031692;28;20429;-72
2024/01/13 06:43:10;;;;;;;9.40;6.23;;;;;;;;;;5067599;28;20907;-72
2024/01/13 06:45:37;;;;;;;11.47;4.87;;;;;;;;;;5049715;28;20447;-75
2024/01/13 06:48:04;;;;;;;11.43;6.03;;;;;;;;;;5049352;28;21620;-73
2024/01/13 06:50:32;;;;;;;11.77;5.70;;;;;;;;;;5032632;28;20439;-72
2024/01/13 06:53:11;;;;;;;13.60;7.47;;;;;;;;;;5025817;28;20459;-74
2024/01/13 06:55:37;;;;;;;12.10;6.20;;;;;;;;;;5032535;28;20434;-75
2024/01/13 06:58:04;;;;;;;10.33;5.77;;;;;;;;;;5016209;28;20809;-72
2024/01/13 07:00:31;;;;;;;9.93;5.90;;;;;;;;;;5032950;28;20528;-74
2024/01/13 07:02:58;;;;;;;11.67;5.97;;;;;;;;;;5032194;28;20462;-73
2024/01/13 07:05:24;;;;;;;13.90;6.67;;;;;;;;;;5032073;28;20450;-74
2024/01/13 07:07:51;;;;;;;17.10;7.47;;;;;;;;;;5032262;28;20446;-73
2024/01/13 07:10:18;;;;;;;10.57;6.53;;;;;;;;;;5028841;28;20435;-72
2024/01/13 07:12:46;;;;;;;8.30;5.77;;;;;;;;;;5062317;28;20511;-73
2024/01/13 07:15:12;;;;;;;10.60;5.70;;;;;;;;;;5048697;28;20899;-73
2024/01/13 07:17:40;;;;;;;8.57;5.50;;;;;;;;;;5032568;28;20424;-74
2024/01/13 07:20:07;;;;;;;12.60;5.43;;;;;;;;;;5066492;28;20448;-74
2024/01/13 07:22:34;;;;;;;13.30;6.23;;;;;;;;;;5031875;28;20420;-73
2024/01/13 07:25:02;;;;;;;15.73;8.00;;;;;;;;;;5032017;28;20448;-70
2024/01/13 07:27:29;;;;;;;17.30;9.57;;;;;;;;;;5031645;28;20481;-72
2024/01/13 07:29:55;;;;;;;20.30;9.97;;;;;;;;;;5048562;28;20447;-74
2024/01/13 07:32:27;;;;;;;16.20;7.80;;;;;;;;;;5031943;28;20482;-79
2024/01/13 07:34:54;;;;;;;15.10;7.20;;;;;;;;;;5036082;28;20472;-76
2024/01/13 07:37:21;;;;;;;13.33;7.50;;;;;;;;;;5030798;28;20490;-76
2024/01/13 07:40:06;;;;;;;10.63;6.33;;;;;;;;;;5036215;28;21772;-75
2024/01/13 07:42:32;;;;;;;12.67;7.23;;;;;;;;;;5014549;28;20429;-74
2024/01/13 07:44:59;;;;;;;11.97;6.73;;;;;;;;;;5047644;28;20478;-76
2024/01/13 07:47:26;;;;;;;13.33;7.67;;;;;;;;;;5065916;28;20421;-71
2024/01/13 07:49:53;;;;;;;11.20;6.70;;;;;;;;;;5030631;28;20440;-74
2024/01/13 07:52:19;;;;;;;11.10;5.47;;;;;;;;;;5031605;28;20542;-76
2024/01/13 07:54:46;;;;;;;14.80;6.50;;;;;;;;;;5031338;28;21021;-76
2024/01/13 07:57:14;;;;;;;13.13;7.17;;;;;;;;;;5047847;28;20515;-75
2024/01/13 07:59:41;;;;;;;14.90;8.30;;;;;;;;;;5031221;28;20493;-71
2024/01/13 08:06:07;;;;;;;17.00;7.90;;;;;;;;;;5074931;28;20841;-70
2024/01/13 08:08:34;;;;;;;11.07;6.07;;;;;;;;;;5040870;28;20471;-70
2024/01/13 08:11:18;;;;;;;16.77;7.83;;;;;;;;;;5075549;28;20877;-70
2024/01/13 08:14:02;;;;;;;14.37;7.33;;;;;;;;;;5057860;28;20464;-70
2024/01/13 08:16:29;;;;;;;10.40;5.97;;;;;;;;;;5074927;28;20420;-71
2024/01/13 08:18:57;;;;;;;10.17;5.17;;;;;;;;;;5057496;28;20482;-69
2024/01/13 08:21:24;;;;;;;13.40;7.00;;;;;;;;;;5057172;28;20443;-69
2024/01/13 08:24:08;;;;;;;10.77;5.40;;;;;;;;;;5058018;28;20447;-69
2024/01/13 08:26:37;;;;;;;12.07;6.47;;;;;;;;;;5058354;28;20404;-69
2024/01/13 08:29:21;;;;;;;12.47;6.80;;;;;;;;;;5059924;28;20380;-69
2024/01/13 08:31:49;;;;;;;15.17;6.90;;;;;;;;;;5074355;28;20519;-69
2024/01/13 08:34:16;;;;;;;10.73;6.20;;;;;;;;;;5056838;28;20460;-69
2024/01/13 08:36:43;;;;;;;10.73;6.27;;;;;;;;;;5056903;28;20779;-69
2024/01/13 08:39:10;;;;;;;16.00;7.07;;;;;;;;;;5074783;28;20439;-69
2024/01/13 08:41:37;;;;;;;13.97;7.30;;;;;;;;;;5073443;28;20470;-69
2024/01/13 08:44:05;;;;;;;11.27;6.43;;;;;;;;;;5056583;28;20424;-69
2024/01/13 08:46:32;;;;;;;12.40;7.50;;;;;;;;;;5056057;28;20783;-69
2024/01/13 08:48:59;;;;;;;13.57;6.57;;;;;;;;;;5056144;28;20441;-69
2024/01/13 08:51:26;;;;;;;8.70;4.80;;;;;;;;;;5056346;28;20847;-69
2024/01/13 08:54:04;;;;;;;12.03;5.93;;;;;;;;;;5057116;28;20744;-69
2024/01/13 08:56:34;;;;;;;5.33;3.00;;;;;;;;;;5074569;28;20404;-69
2024/01/13 08:59:02;;;;;;;5.53;2.73;;;;;;;;;;5057030;28;20891;-69
2024/01/13 09:01:29;;;;;;;7.00;3.90;;;;;;;;;;5055754;28;20560;-69
2024/01/13 09:04:04;;;;;;;5.97;3.30;;;;;;;;;;5069981;28;20488;-69
2024/01/13 09:06:32;;;;;;;5.03;3.20;;;;;;;;;;5094248;28;20435;-69
2024/01/13 09:08:59;;;;;;;7.03;3.70;;;;;;;;;;5060413;28;20798;-69
2024/01/13 09:11:27;;;;;;;6.10;2.73;;;;;;;;;;5094253;28;20511;-69
2024/01/13 09:14:07;;;;;;;7.63;3.53;;;;;;;;;;5079047;28;20478;-69
2024/01/13 09:16:35;;;;;;;7.60;3.67;;;;;;;;;;5043104;28;20435;-69
2024/01/13 09:19:01;;;;;;;9.43;4.40;;;;;;;;;;5080149;28;20908;-69
2024/01/13 09:21:28;;;;;;;9.30;4.90;;;;;;;;;;5109434;28;20430;-69
2024/01/13 09:24:06;;;;;;;8.27;4.03;;;;;;;;;;5040016;28;20456;-69
2024/01/13 09:26:44;;;;;;;11.80;5.47;;;;;;;;;;5056558;28;20494;-69
2024/01/13 09:29:17;;;;;;;5.27;3.03;;;;;;;;;;5041089;28;20756;-69
2024/01/13 09:31:46;;;;;;;5.77;3.30;;;;;;;;;;5056087;28;20432;-69
2024/01/13 09:34:14;;;;;;;13.97;7.37;;;;;;;;;;5073365;28;20864;-68
2024/01/13 09:36:41;;;;;;;11.33;5.20;;;;;;;;;;5039041;28;20448;-69
2024/01/13 09:39:14;;;;;;;8.40;4.27;;;;;;;;;;5052107;28;20452;-69
2024/01/13 09:45:35;;;;;;;10.17;4.40;;;;;;;;;;5087942;28;20386;-74
2024/01/13 09:51:56;;;;;;;8.77;5.10;;;;;;;;;;5074827;28;20423;-73
2024/01/13 09:54:24;;;;;;;7.83;3.10;;;;;;;;;;5062996;28;20974;-73
2024/01/13 09:56:53;;;;;;;8.33;4.60;;;;;;;;;;5066297;28;20432;-73
2024/01/13 09:59:25;;;;;;;7.60;3.53;;;;;;;;;;5062888;28;20466;-73
2024/01/13 10:09:39;;;;;;;8.53;3.30;;;;;;;;;;5071932;28;20903;-73
2024/01/13 10:30:28;;;;;;;6.40;3.33;;;;;;;;;;5082410;28;20959;-72
2024/01/13 10:32:59;;;;;;;5.07;2.57;;;;;;;;;;5073658;28;20451;-73
2024/01/13 10:39:19;;;;;;;10.63;4.23;;;;;;;;;;5096866;28;20387;-70
2024/01/13 10:41:51;;;;;;;12.13;5.43;;;;;;;;;;5078899;28;20452;-74
2024/01/13 10:44:19;;;;;;;13.77;6.63;;;;;;;;;;5079319;28;20466;-69
2024/01/13 10:46:49;;;;;;;6.87;3.33;;;;;;;;;;5097116;28;20435;-83
2024/01/13 10:49:21;;;;;;;14.30;6.33;;;;;;;;;;5080468;28;20451;-81
2024/01/13 10:51:52;;;;;;;7.43;3.30;;;;;;;;;;5062602;28;20419;-68
2024/01/13 10:54:18;;;;;;;11.80;5.43;;;;;;;;;;5096956;28;20465;-69
2024/01/13 10:56:45;;;;;;;7.93;4.23;;;;;;;;;;5079631;28;20443;-69
2024/01/13 11:07:12;;;;;;;12.20;5.90;;;;;;;;;;5063616;28;20427;-69
2024/01/13 11:09:39;;;;;;;12.10;5.40;;;;;;;;;;5042091;28;20450;-69
2024/01/13 11:12:17;;;;;;;12.73;6.23;;;;;;;;;;5035980;28;20444;-69
2024/01/13 11:14:57;;;;;;;7.40;3.53;;;;;;;;;;5058908;28;20479;-69
2024/01/13 11:17:25;;;;;;;10.60;5.10;;;;;;;;;;5051562;28;20483;-69
2024/01/13 11:19:52;;;;;;;7.63;3.37;;;;;;;;;;5021584;28;20441;-69
2024/01/13 11:22:35;;;;;;;14.30;6.03;;;;;;;;;;5059652;28;20465;-69
2024/01/13 11:25:27;;;;;;;12.50;5.77;;;;;;;;;;5023857;28;20730;-71
2024/01/13 11:27:58;;;;;;;14.33;4.83;;;;;;;;;;5076253;28;20399;-67
2024/01/13 11:30:37;;;;;;;9.17;5.07;;;;;;;;;;5076228;28;20525;-66
2024/01/13 11:33:11;;;;;;;12.80;5.67;;;;;;;;;;5057748;28;20436;-70
2024/01/13 11:35:56;;;;;;;8.93;4.33;;;;;;;;;;5060665;28;20432;-70
2024/01/13 11:38:23;;;;;;;9.50;5.60;;;;;;;;;;5057774;28;20440;-67
2024/01/13 11:40:50;;;;;;;6.03;3.97;;;;;;;;;;5075570;28;20817;-67
2024/01/13 11:43:18;;;;;;;15.67;5.73;;;;;;;;;;5057865;28;20431;-67
2024/01/13 11:45:46;;;;;;;9.83;4.63;;;;;;;;;;5075133;28;20432;-71
2024/01/13 11:48:31;;;;;;;14.90;7.40;;;;;;;;;;5024624;28;20443;-71
2024/01/13 11:50:59;;;;;;;8.70;4.37;;;;;;;;;;5039042;28;20431;-70
2024/01/13 11:53:35;;;;;;;15.27;6.43;;;;;;;;;;5021098;28;20532;-71
2024/01/13 11:56:03;;;;;;;13.97;6.20;;;;;;;;;;5037729;28;20464;-71
2024/01/13 12:02:24;;;;;;;12.13;5.13;;;;;;;;;;5063903;28;20456;-71
2024/01/13 12:04:51;;;;;;;13.37;3.73;;;;;;;;;;5057291;28;20431;-71
2024/01/13 12:07:18;;;;;;;16.00;6.97;;;;;;;;;;5024369;28;20452;-71
2024/01/13 12:09:45;;;;;;;11.00;5.00;;;;;;;;;;5074659;28;20432;-71
2024/01/13 12:12:12;;;;;;;19.17;8.20;;;;;;;;;;5057449;28;20424;-71
2024/01/13 12:14:39;;;;;;;10.97;4.50;;;;;;;;;;5068696;28;20802;-70
2024/01/13 12:17:08;;;;;;;13.07;5.37;;;;;;;;;;5077088;28;20953;-71
2024/01/13 12:19:36;;;;;;;12.63;5.83;;;;;;;;;;5060464;28;20439;-72
2024/01/13 12:22:04;;;;;;;13.23;5.77;;;;;;;;;;5059671;28;20791;-72
2024/01/13 12:24:32;;;;;;;7.87;4.03;;;;;;;;;;5060266;28;20489;-72
2024/01/13 12:30:52;;;;;;;13.83;7.00;;;;;;;;;;5082213;28;20453;-72
2024/01/13 12:37:13;;;;;;;8.10;4.87;;;;;;;;;;5106105;28;20421;-72
2024/01/13 12:43:40;;;;;;;13.07;5.23;;;;;;;;;;5087484;28;20445;-72
2024/01/13 12:46:08;;;;;;;10.23;3.27;;;;;;;;;;5056500;28;20428;-72
2024/01/13 12:48:34;;;;;;;16.70;7.73;;;;;;;;;;5074125;28;20943;-72
2024/01/13 12:51:18;;;;;;;13.57;5.83;;;;;;;;;;5093783;28;20423;-72
2024/01/13 12:53:46;;;;;;;11.43;5.73;;;;;;;;;;5060211;28;20424;-72
2024/01/13 13:00:17;;;;;;;14.07;5.77;;;;;;;;;;5094270;28;21010;-72
2024/01/13 13:02:46;;;;;;;17.53;7.50;;;;;;;;;;5059298;28;20459;-72
2024/01/13 13:05:14;;;;;;;9.37;4.47;;;;;;;;;;5094099;28;20485;-72
2024/01/13 13:07:41;;;;;;;15.30;7.80;;;;;;;;;;5060028;28;20922;-72
2024/01/13 13:10:08;;;;;;;9.97;6.27;;;;;;;;;;5076075;28;20441;-73
2024/01/13 13:12:35;;;;;;;13.97;7.30;;;;;;;;;;5059375;28;20439;-72
2024/01/13 13:15:04;;;;;;;11.60;5.23;;;;;;;;;;5060224;28;20451;-73
2024/01/13 13:17:38;;;;;;;15.17;4.87;;;;;;;;;;5045200;28;20434;-72
2024/01/13 13:20:10;;;;;;;9.87;5.23;;;;;;;;;;5076298;28;20494;-72
2024/01/13 13:26:36;;;;;;;14.30;4.20;;;;;;;;;;5074035;28;20424;-75
2024/01/13 13:29:03;;;;;;;7.40;4.33;;;;;;;;;;5023541;28;20436;-72
2024/01/13 13:31:30;;;;;;;13.90;7.77;;;;;;;;;;5074920;28;20535;-72
2024/01/13 13:33:58;;;;;;;13.17;6.73;;;;;;;;;;5055801;28;20444;-71
2024/01/13 13:36:25;;;;;;;11.40;5.33;;;;;;;;;;5073705;28;20513;-71
2024/01/13 13:38:52;;;;;;;14.07;6.87;;;;;;;;;;5058467;28;20435;-71
2024/01/13 13:41:19;;;;;;;16.23;9.03;;;;;;;;;;5093919;28;20415;-71
2024/01/13 13:43:46;;;;;;;10.80;6.50;;;;;;;;;;5076209;28;20464;-71
2024/01/13 13:46:13;;;;;;;10.67;6.43;;;;;;;;;;5075848;28;20421;-71
2024/01/13 13:48:40;;;;;;;12.50;5.90;;;;;;;;;;5064031;28;20434;-71
2024/01/13 13:51:08;;;;;;;16.00;7.67;;;;;;;;;;5059315;28;20420;-71
2024/01/13 13:53:36;;;;;;;15.50;7.73;;;;;;;;;;5047101;28;20460;-71
2024/01/13 13:56:03;;;;;;;10.70;6.30;;;;;;;;;;5076921;28;20462;-71
2024/01/13 13:58:33;;;;;;;12.13;4.80;;;;;;;;;;5083744;28;20427;-71
2024/01/13 14:09:14;;;;;;;11.13;6.07;;;;;;;;;;5097474;28;20811;-71
2024/01/13 14:11:41;;;;;;;15.47;6.50;;;;;;;;;;5074630;28;20428;-72
2024/01/13 14:14:08;;;;;;;13.63;7.70;;;;;;;;;;5026317;28;20428;-71
2024/01/13 14:16:37;;;;;;;20.33;9.53;;;;;;;;;;5059111;28;20428;-72
2024/01/13 14:19:04;;;;;;;10.17;5.30;;;;;;;;;;5059169;28;20416;-71
2024/01/13 14:21:32;;;;;;;14.23;6.77;;;;;;;;;;5050169;28;20515;-72
2024/01/13 14:23:59;;;;;;;18.67;9.73;;;;;;;;;;5058700;28;20535;-72
2024/01/13 14:26:27;;;;;;;23.00;10.43;;;;;;;;;;5076852;28;20459;-72
2024/01/13 14:28:54;;;;;;;16.57;9.83;;;;;;;;;;5061268;28;20489;-72
2024/01/13 14:31:21;;;;;;;16.77;6.80;;;;;;;;;;5057068;28;20460;-72
2024/01/13 14:33:47;;;;;;;13.60;6.40;;;;;;;;;;5058192;28;20432;-72
2024/01/13 14:36:14;;;;;;;16.50;7.43;;;;;;;;;;5042404;28;20456;-72
2024/01/13 14:38:41;;;;;;;14.73;8.13;;;;;;;;;;5059552;28;20507;-72
2024/01/13 14:41:08;;;;;;;14.53;7.93;;;;;;;;;;5042341;28;21001;-71
2024/01/13 14:43:35;;;;;;;11.73;5.53;;;;;;;;;;5059697;28;20432;-72
2024/01/13 14:46:01;;;;;;;11.07;5.70;;;;;;;;;;5049957;28;20412;-72
2024/01/13 14:48:29;;;;;;;10.10;5.63;;;;;;;;;;5058955;28;20441;-72
2024/01/13 14:51:27;;;;;;;12.87;5.77;;;;;;;;;;5065952;28;20436;-70
2024/01/13 14:53:54;;;;;;;8.53;5.07;;;;;;;;;;5059309;28;20440;-72
2024/01/13 15:00:15;;;;;;;12.03;7.03;;;;;;;;;;5081769;28;20793;-72
2024/01/13 15:07:19;;;;;;;6.60;3.73;;;;;;;;;;5073334;28;20878;-73
2024/01/13 15:09:47;;;;;;;9.97;3.27;;;;;;;;;;5056870;28;20408;-72
2024/01/13 15:12:16;;;;;;;8.13;4.53;;;;;;;;;;5039116;28;20457;-73
2024/01/13 15:14:49;;;;;;;8.47;4.13;;;;;;;;;;5039135;28;20510;-72
2024/01/13 15:17:32;;;;;;;14.60;5.73;;;;;;;;;;5038270;28;20461;-72
2024/01/13 15:20:05;;;;;;;8.70;4.70;;;;;;;;;;5056056;28;20447;-72
2024/01/13 15:22:50;;;;;;;10.30;5.13;;;;;;;;;;5041032;28;20397;-73
2024/01/13 15:25:18;;;;;;;6.10;3.73;;;;;;;;;;5038475;28;20844;-73
2024/01/13 15:31:50;;;;;;;10.67;5.03;;;;;;;;;;5055737;28;20735;-72
2024/01/13 15:34:17;;;;;;;8.27;2.83;;;;;;;;;;5053802;28;20546;-72
2024/01/13 15:36:44;;;;;;;7.20;3.80;;;;;;;;;;5074907;28;20508;-73
2024/01/13 15:39:14;;;;;;;7.73;4.23;;;;;;;;;;5071820;28;20844;-73
2024/01/13 15:46:06;;;;;;;4.23;1.83;;;;;;;;;;5075225;28;20457;-73
2024/01/13 15:48:33;;;;;;;7.93;4.10;;;;;;;;;;5045765;28;20503;-72
2024/01/13 15:50:59;;;;;;;6.07;2.90;;;;;;;;;;5056347;28;20488;-73
2024/01/13 15:53:26;;;;;;;4.83;2.83;;;;;;;;;;5044488;28;20974;-73
2024/01/13 15:55:53;;;;;;;6.17;2.90;;;;;;;;;;5055111;28;20453;-73
2024/01/13 15:58:21;;;;;;;4.37;2.73;;;;;;;;;;5054294;28;20506;-73
2024/01/13 16:00:48;;;;;;;5.20;3.30;;;;;;;;;;5037500;28;20431;-73
2024/01/13 16:03:15;;;;;;;8.77;4.77;;;;;;;;;;5070611;28;20461;-72
2024/01/13 16:05:42;;;;;;;4.53;2.70;;;;;;;;;;5055443;28;20421;-72
2024/01/13 16:08:09;;;;;;;3.80;2.30;;;;;;;;;;5045995;28;20467;-73
2024/01/13 16:10:36;;;;;;;5.77;2.97;;;;;;;;;;5024668;28;20439;-72
2024/01/13 16:16:01;;;;;;;4.83;2.97;;;;;;;;;;5056996;28;20527;-73
2024/01/13 16:18:27;;;;;;;3.37;2.07;;;;;;;;;;5089752;28;20450;-73
2024/01/13 16:20:55;;;;;;;4.87;3.20;;;;;;;;;;5060697;28;20428;-73
2024/01/13 16:23:22;;;;;;;4.80;2.80;;;;;;;;;;5060855;28;20494;-73
2024/01/13 16:25:49;;;;;;;8.50;3.60;;;;;;;;;;5077156;28;20518;-73
2024/01/13 16:28:16;;;;;;;7.07;2.53;;;;;;;;;;5060554;28;20424;-72
2024/01/13 16:30:43;;;;;;;4.10;2.23;;;;;;;;;;5049518;28;20543;-73
2024/01/13 16:33:20;;;;;;;3.97;2.33;;;;;;;;;;5076194;28;20951;-69
2024/01/13 16:35:47;;;;;;;5.40;2.50;;;;;;;;;;5084786;28;20455;-70
2024/01/13 16:38:14;;;;;;;4.30;2.33;;;;;;;;;;5070755;28;20434;-68
2024/01/13 16:40:41;;;;;;;4.63;2.10;;;;;;;;;;5074433;28;20422;-69
2024/01/13 16:43:09;;;;;;;3.83;2.33;;;;;;;;;;5074335;28;20428;-69
2024/01/13 16:45:36;;;;;;;2.83;2.23;;;;;;;;;;5056900;28;20429;-74
2024/01/13 16:48:06;;;;;;;6.17;2.17;;;;;;;;;;5058020;28;20749;-70
2024/01/13 16:50:33;;;;;;;2.87;1.70;;;;;;;;;;5039059;28;20498;-70
2024/01/13 16:53:00;;;;;;;2.80;2.10;;;;;;;;;;5063403;28;20468;-70
2024/01/13 16:55:28;;;;;;;3.10;1.97;;;;;;;;;;5074937;28;20828;-70
2024/01/13 16:57:55;;;;;;;4.43;2.77;;;;;;;;;;5057199;28;20799;-70
2024/01/13 17:00:21;;;;;;;3.83;2.27;;;;;;;;;;5073971;28;20428;-70
2024/01/13 17:03:26;;;;;;;4.40;2.30;;;;;;;;;;5056121;28;20440;-70
2024/01/13 17:05:57;;;;;;;5.67;3.00;;;;;;;;;;5070784;28;20435;-70
2024/01/13 17:08:24;;;;;;;4.60;2.20;;;;;;;;;;5056241;28;20923;-70
2024/01/13 17:10:52;;;;;;;4.77;2.70;;;;;;;;;;5073799;28;20432;-70
2024/01/13 17:13:19;;;;;;;3.67;2.30;;;;;;;;;;5074280;28;20428;-70
2024/01/13 17:15:46;;;;;;;4.00;2.63;;;;;;;;;;5039472;28;20451;-70